EKY weather

Bessemer Airport
Bessemer, Alabama, United States

Public forecast

Using degrees Fahrenheit for public forecast. Weather courtesy of forecast.io.

Closest aviation weather report (METAR) to Bessemer Airport

Closest report is Shelby County Airport, 10.9 nm (20.1 km) SE. Retrieved 2020/06/05 07:53 UTC (36 minutes ago):

KEET 050753Z AUTO 00000KT 10SM CLR 22/20 A2995 RMK AO2 SLP135 T02220200

Closest aviation forecast (TAF) to Bessemer Airport

Closest forecast is Shelby County Airport, 10.9 nm (20.1 km) SE. Retrieved 2020/06/05 06:42 UTC (2 hours ago):

TAF KEET 050540Z 0506/0606 20003KT P6SM FEW100 FM051400 24005KT P6SM SCT020 SCT050 FM051800 26007KT P6SM SCT040 PROB30 0519/0524 4SM TSRA BKN040CB FM060200 VRB04KT P6SM SCT060